Time;durP1;ratioP1;P1;durP2;ratioP2;P2;SDS_P1;SDS_P2;PMS_P1;PMS_P2;Temp;Humidity;BMP_temperature;BMP_pressure;BME280_temperature;BME280_humidity;BME280_pressure;Samples;Min_cycle;Max_cycle;Signal;HPM_P1;HPM_P2
2022/08/07 00:00:29;;;;;;;3.22;1.20;;;;;;;16.27;59.50;101257.25;5033296;28;20003;-79
2022/08/07 00:02:57;;;;;;;3.10;1.17;;;;;;;16.02;60.08;101251.00;5033050;28;20040;-81
2022/08/07 00:05:24;;;;;;;3.83;1.20;;;;;;;16.02;60.35;101251.78;5033153;28;20033;-80
2022/08/07 00:07:51;;;;;;;2.92;1.20;;;;;;;16.08;60.21;101244.09;5033111;28;20032;-80
2022/08/07 00:10:16;;;;;;;2.42;1.00;;;;;;;16.06;60.34;101257.41;5032597;28;20336;-80
2022/08/07 00:12:45;;;;;;;2.75;1.08;;;;;;;16.03;60.34;101247.09;5033140;28;20474;-80
2022/08/07 00:15:10;;;;;;;5.13;1.45;;;;;;;16.05;60.27;101248.34;5032926;28;20029;-79
2022/08/07 00:17:35;;;;;;;4.30;1.20;;;;;;;15.94;60.74;101242.50;5032624;28;20036;-79
2022/08/07 00:20:02;;;;;;;4.43;1.33;;;;;;;15.95;60.96;101235.88;5015085;28;20052;-79
2022/08/07 00:22:27;;;;;;;3.38;1.10;;;;;;;15.98;60.95;101236.34;5032686;28;20029;-79
2022/08/07 00:24:52;;;;;;;7.03;1.40;;;;;;;15.99;61.17;101229.72;5032438;28;20049;-79
2022/08/07 00:27:18;;;;;;;2.83;1.17;;;;;;;15.84;61.77;101231.19;5015001;28;20343;-79
2022/08/07 00:29:43;;;;;;;3.47;1.52;;;;;;;15.81;61.79;101235.44;5015269;28;20264;-79
2022/08/07 00:32:10;;;;;;;;;;;;;;;15.88;61.74;101232.91;5032866;28;20099;-79
2022/08/07 00:34:35;;;;;;;5.32;1.83;;;;;;;15.83;62.21;101235.88;5032839;28;19921;-79
2022/08/07 00:37:02;;;;;;;2.88;1.00;;;;;;;15.76;62.22;101229.34;5032985;28;20380;-79
2022/08/07 00:39:27;;;;;;;2.58;1.02;;;;;;;15.79;62.28;101232.22;5032754;28;20388;-79
2022/08/07 00:41:56;;;;;;;4.55;1.00;;;;;;;15.81;61.83;101235.44;5032570;28;20029;-80
2022/08/07 00:44:21;;;;;;;3.05;1.10;;;;;;;15.80;61.70;101222.03;5032494;28;20067;-79
2022/08/07 00:46:47;;;;;;;2.78;1.30;;;;;;;15.74;62.15;101220.66;5015211;28;20068;-79
2022/08/07 00:49:12;;;;;;;;;;;;;;;15.49;62.65;101219.81;5032898;28;20670;-80
2022/08/07 00:51:38;;;;;;;5.25;1.38;;;;;;;15.23;63.92;101220.09;5032569;28;19913;-80
2022/08/07 00:54:03;;;;;;;;;;;;;;;15.22;64.28;101230.25;5015249;28;20030;-80
2022/08/07 00:56:28;;;;;;;3.97;1.00;;;;;;;15.24;64.38;101219.75;5032287;28;19983;-80
2022/08/07 00:58:54;;;;;;;4.65;1.17;;;;;;;15.17;64.20;101219.50;5032637;28;20493;-80
2022/08/07 01:01:21;;;;;;;3.15;1.30;;;;;;;15.11;64.83;101220.84;5032172;28;20053;-80
2022/08/07 01:03:48;;;;;;;3.25;1.60;;;;;;;15.08;64.98;101217.97;5032048;28;20088;-80
2022/08/07 01:06:14;;;;;;;3.33;1.20;;;;;;;15.07;64.46;101214.44;5032548;28;20109;-80
2022/08/07 01:08:40;;;;;;;3.85;1.50;;;;;;;15.05;65.08;101216.72;5032544;28;20452;-80
2022/08/07 01:11:06;;;;;;;2.83;1.15;;;;;;;15.12;65.23;101221.69;5032502;28;20063;-80
2022/08/07 01:13:31;;;;;;;;;;;;;;;15.38;64.44;101207.66;5032972;28;20396;-80
2022/08/07 01:15:58;;;;;;;2.85;0.98;;;;;;;15.54;63.93;101208.59;5032024;28;20035;-80
2022/08/07 01:18:24;;;;;;;3.17;1.40;;;;;;;15.38;64.22;101205.72;5014715;28;20191;-79
2022/08/07 01:20:57;;;;;;;;;;;;;;;15.31;64.96;101214.53;5032472;28;20029;-80
2022/08/07 01:23:23;;;;;;;8.13;1.58;;;;;;;15.27;65.41;101205.34;5014304;28;19936;-79
2022/08/07 01:25:48;;;;;;;3.83;1.52;;;;;;;15.01;66.02;101208.38;5032229;28;20464;-80
2022/08/07 01:28:13;;;;;;;;;;;;;;;14.99;66.21;101205.19;5033138;28;20096;-80
2022/08/07 01:30:40;;;;;;;3.17;1.20;;;;;;;14.93;66.58;101206.50;5031999;28;19917;-80
2022/08/07 01:33:06;;;;;;;3.38;1.42;;;;;;;14.85;66.83;101203.84;5031924;28;20064;-80
2022/08/07 01:35:31;;;;;;;3.60;1.63;;;;;;;15.01;66.25;101202.88;5032327;28;20073;-80
2022/08/07 01:37:56;;;;;;;;;;;;;;;14.88;67.00;101203.19;5035110;28;20116;-80
2022/08/07 01:40:24;;;;;;;3.65;1.17;;;;;;;14.89;67.05;101202.03;5035431;28;20379;-80
2022/08/07 01:42:50;;;;;;;3.40;1.52;;;;;;;15.03;66.68;101202.56;5035697;28;20025;-80
2022/08/07 01:45:16;;;;;;;4.03;1.35;;;;;;;14.78;68.01;101200.84;5035791;28;20103;-79
2022/08/07 01:47:42;;;;;;;5.03;1.50;;;;;;;14.62;68.94;101206.97;5017912;28;20033;-80
2022/08/07 01:50:08;;;;;;;3.45;1.50;;;;;;;14.53;69.27;101197.19;5035989;28;20446;-80
2022/08/07 01:52:37;;;;;;;4.53;1.95;;;;;;;14.46;69.56;101191.47;5035270;28;20029;-79
2022/08/07 01:55:06;;;;;;;6.35;2.15;;;;;;;14.38;69.79;101193.09;5035244;28;20041;-79
2022/08/07 01:57:36;;;;;;;3.35;1.75;;;;;;;14.31;70.31;101201.06;5035139;28;20079;-79
2022/08/07 02:00:06;;;;;;;5.43;1.80;;;;;;;14.24;70.80;101198.81;5034982;28;20108;-79
2022/08/07 02:03:00;;;;;;;3.20;1.30;;;;;;;14.08;70.94;101197.81;5035602;28;20037;-79
2022/08/07 02:05:32;;;;;;;3.58;1.63;;;;;;;14.11;71.04;101192.50;5027393;28;20392;-79
2022/08/07 02:08:01;;;;;;;3.55;1.58;;;;;;;14.18;71.14;101185.69;5017556;28;20447;-79
2022/08/07 02:10:28;;;;;;;3.05;1.33;;;;;;;14.29;70.50;101192.38;5017409;28;20428;-79
2022/08/07 02:12:57;;;;;;;4.47;1.67;;;;;;;14.34;70.20;101194.91;5035479;28;20036;-79
2022/08/07 02:15:25;;;;;;;5.35;1.80;;;;;;;14.15;70.67;101192.63;5017375;28;20029;-80
2022/08/07 02:17:52;;;;;;;5.78;2.22;;;;;;;14.07;71.09;101188.00;5035381;28;20060;-80
2022/08/07 02:20:20;;;;;;;3.55;1.48;;;;;;;13.90;72.06;101190.84;5035212;28;20025;-79
2022/08/07 02:22:46;;;;;;;4.97;1.50;;;;;;;13.73;72.94;101181.59;5034776;28;20065;-79
2022/08/07 02:25:15;;;;;;;3.58;1.75;;;;;;;13.47;73.86;101189.94;5034587;28;20022;-79
2022/08/07 02:27:42;;;;;;;3.83;1.58;;;;;;;13.35;74.10;101181.59;5034494;28;20452;-79
2022/08/07 02:30:08;;;;;;;4.00;1.55;;;;;;;13.26;74.36;101180.81;5017005;28;20116;-79
2022/08/07 02:32:37;;;;;;;4.80;1.75;;;;;;;13.13;74.60;101176.34;5034656;28;20036;-79
2022/08/07 02:35:05;;;;;;;3.80;1.48;;;;;;;13.03;74.97;101176.66;5034360;28;20037;-79
2022/08/07 02:37:34;;;;;;;4.55;1.50;;;;;;;12.99;75.15;101178.44;5034974;28;20026;-79
2022/08/07 02:40:01;;;;;;;3.53;1.50;;;;;;;12.96;75.45;101179.91;5034652;28;20387;-79
2022/08/07 02:42:29;;;;;;;3.97;1.73;;;;;;;12.89;75.95;101177.66;5034475;28;20036;-79
2022/08/07 02:44:55;;;;;;;3.33;1.65;;;;;;;12.87;76.19;101173.66;5034473;28;20041;-79
2022/08/07 02:47:21;;;;;;;3.80;1.73;;;;;;;12.90;76.33;101178.47;5034107;28;20471;-79
2022/08/07 02:49:47;;;;;;;4.20;1.65;;;;;;;12.95;76.10;101179.09;5016601;28;20041;-79
2022/08/07 02:52:18;;;;;;;3.88;1.50;;;;;;;13.05;75.54;101177.16;5034261;28;20152;-80
2022/08/07 02:54:45;;;;;;;4.60;1.75;;;;;;;13.10;74.90;101179.69;5033912;28;20033;-79
2022/08/07 02:57:12;;;;;;;3.80;1.73;;;;;;;13.10;74.97;101166.84;5034256;28;20076;-80
2022/08/07 02:59:44;;;;;;;4.18;1.80;;;;;;;13.17;74.05;101169.06;5016288;28;20041;-80
2022/08/07 03:02:12;;;;;;;2.88;1.30;;;;;;;13.21;73.96;101172.78;5033778;28;20029;-80
2022/08/07 03:04:40;;;;;;;3.85;1.60;;;;;;;13.24;73.69;101172.13;5033812;28;20051;-80
2022/08/07 03:07:06;;;;;;;3.08;1.42;;;;;;;13.32;73.28;101175.97;5033705;28;20068;-80
2022/08/07 03:09:32;;;;;;;4.82;1.60;;;;;;;13.28;73.42;101172.31;5033608;28;20053;-80
2022/08/07 03:11:57;;;;;;;4.47;1.85;;;;;;;13.33;73.06;101178.38;5033699;28;20091;-80
2022/08/07 03:14:24;;;;;;;3.58;1.40;;;;;;;13.34;72.88;101174.53;5033511;28;20033;-80
2022/08/07 03:16:50;;;;;;;3.53;1.38;;;;;;;13.33;72.89;101178.38;5016124;28;20191;-80
2022/08/07 03:19:15;;;;;;;3.30;1.27;;;;;;;13.42;72.40;101176.41;5033477;28;20439;-80
2022/08/07 03:21:41;;;;;;;2.97;1.42;;;;;;;13.50;71.59;101167.38;5033638;28;20065;-80
2022/08/07 03:24:06;;;;;;;3.03;1.33;;;;;;;13.46;71.60;101171.91;5016041;28;20559;-80
2022/08/07 03:26:33;;;;;;;6.47;1.80;;;;;;;13.44;71.43;101171.44;5015893;28;20291;-80
2022/08/07 03:29:01;;;;;;;4.53;1.40;;;;;;;13.47;71.58;101165.31;5033580;28;20030;-80
2022/08/07 03:31:28;;;;;;;3.83;1.80;;;;;;;13.55;71.68;101171.84;5033746;28;20435;-80
2022/08/07 03:34:00;;;;;;;4.70;1.40;;;;;;;13.48;71.86;101169.63;5015697;28;20091;-80
2022/08/07 03:36:27;;;;;;;3.88;1.50;;;;;;;13.39;71.94;101160.66;5033226;28;20084;-80
2022/08/07 03:38:57;;;;;;;3.47;1.30;;;;;;;13.37;71.80;101160.19;5015663;28;20029;-80
2022/08/07 03:41:24;;;;;;;2.78;1.20;;;;;;;13.38;71.61;101164.53;5033150;28;20109;-80
2022/08/07 03:43:50;;;;;;;2.95;1.20;;;;;;;13.44;71.77;101163.22;5033278;28;20060;-80
2022/08/07 03:46:15;;;;;;;3.25;1.60;;;;;;;13.50;71.42;101161.09;5033350;28;20336;-80
2022/08/07 03:48:41;;;;;;;3.28;1.30;;;;;;;13.52;71.30;101164.31;5033225;28;20467;-80
2022/08/07 03:51:07;;;;;;;3.53;1.67;;;;;;;13.49;71.22;101165.78;5032914;28;20029;-80
2022/08/07 03:53:34;;;;;;;3.22;1.50;;;;;;;13.41;71.78;101161.13;5032960;28;20033;-80
2022/08/07 03:55:59;;;;;;;;;;;;;;;13.34;71.91;101158.09;5033587;28;20453;-80
2022/08/07 03:58:27;;;;;;;3.53;1.48;;;;;;;13.33;72.48;101155.69;5032877;28;20008;-80
2022/08/07 04:00:55;;;;;;;3.70;1.67;;;;;;;13.35;72.28;101159.72;5032156;28;20025;-80
2022/08/07 04:03:20;;;;;;;3.08;1.40;;;;;;;13.36;72.37;101161.31;5032985;28;20025;-80
2022/08/07 04:05:45;;;;;;;4.07;1.50;;;;;;;13.24;72.63;101161.19;5032947;28;20482;-80
2022/08/07 04:08:13;;;;;;;7.33;2.10;;;;;;;13.28;72.53;101164.91;5032556;28;20083;-80
2022/08/07 04:10:40;;;;;;;5.72;2.15;;;;;;;13.18;72.55;101170.72;5032977;28;20086;-80
2022/08/07 04:13:06;;;;;;;4.45;1.90;;;;;;;13.06;73.78;101159.59;5032524;28;20026;-80
2022/08/07 04:15:32;;;;;;;5.13;2.63;;;;;;;13.05;74.22;101160.75;5032765;28;20029;-80
2022/08/07 04:17:58;;;;;;;5.05;2.70;;;;;;;12.92;74.88;101166.06;5032452;28;20109;-80
2022/08/07 04:20:24;;;;;;;4.65;2.10;;;;;;;12.81;74.67;101156.63;5032413;28;20037;-80
2022/08/07 04:22:49;;;;;;;4.82;2.35;;;;;;;12.73;75.26;101154.69;5032759;28;20030;-80
2022/08/07 04:25:16;;;;;;;4.85;2.83;;;;;;;12.61;75.58;101152.63;5032754;28;20041;-80
2022/08/07 04:27:42;;;;;;;4.68;2.40;;;;;;;12.56;75.87;101154.72;5032326;28;20029;-80
2022/08/07 04:30:08;;;;;;;5.28;2.50;;;;;;;12.51;76.40;101168.53;5032466;28;20057;-80
2022/08/07 04:32:33;;;;;;;5.03;2.55;;;;;;;12.52;76.37;101164.69;5032670;28;20034;-80
2022/08/07 04:35:00;;;;;;;7.05;2.50;;;;;;;12.64;75.52;101160.19;5032398;28;20584;-80
2022/08/07 04:37:26;;;;;;;4.72;2.60;;;;;;;12.64;75.49;101162.09;5032593;28;20120;-80
2022/08/07 04:39:51;;;;;;;6.82;2.80;;;;;;;12.70;75.27;101160.81;5032471;28;20108;-80
2022/08/07 04:42:17;;;;;;;4.07;2.30;;;;;;;12.63;75.31;101164.03;5032591;28;20034;-80
2022/08/07 04:44:42;;;;;;;5.32;2.67;;;;;;;12.54;75.78;101168.69;5032486;28;20256;-79
2022/08/07 04:47:20;;;;;;;6.03;2.90;;;;;;;12.51;76.29;101176.72;5032490;28;20040;-80
2022/08/07 04:50:00;;;;;;;5.72;3.28;;;;;;;12.59;76.39;101179.44;5032157;28;20033;-80
2022/08/07 04:52:41;;;;;;;5.10;2.70;;;;;;;12.59;75.23;101182.19;5032118;28;20029;-80
2022/08/07 04:55:18;;;;;;;6.05;2.50;;;;;;;12.59;75.35;101190.38;5032405;28;20030;-80
2022/08/07 04:58:09;;;;;;;4.90;2.05;;;;;;;12.55;75.18;101191.34;5032376;28;20048;-80
2022/08/07 05:00:44;;;;;;;4.70;2.47;;;;;;;12.59;74.97;101184.09;5032297;28;20033;-80
2022/08/07 05:03:22;;;;;;;5.32;2.58;;;;;;;12.66;74.98;101184.44;5032252;28;20116;-80
2022/08/07 05:06:04;;;;;;;4.43;2.10;;;;;;;12.80;74.25;101171.41;5014471;28;20125;-80
2022/08/07 05:08:46;;;;;;;5.30;2.00;;;;;;;12.93;73.57;101175.91;5032293;28;20030;-80
2022/08/07 05:11:18;;;;;;;5.47;2.17;;;;;;;13.08;72.67;101177.28;5032383;28;20067;-79
2022/08/07 05:13:58;;;;;;;5.30;1.70;;;;;;;13.26;71.79;101178.06;5035918;28;20028;-80
2022/08/07 05:16:28;;;;;;;3.97;1.90;;;;;;;13.31;70.98;101177.91;5035700;28;20396;-80
2022/08/07 05:18:59;;;;;;;3.65;1.33;;;;;;;13.50;70.27;101178.31;5035620;28;20029;-80
2022/08/07 05:21:27;;;;;;;3.55;1.40;;;;;;;13.55;69.76;101180.88;5035531;28;20022;-79
2022/08/07 05:24:02;;;;;;;2.88;1.35;;;;;;;13.66;69.57;101178.56;5035579;28;20092;-80
2022/08/07 05:26:30;;;;;;;4.32;1.30;;;;;;;13.78;69.21;101183.34;5035761;28;20029;-80
2022/08/07 05:28:58;;;;;;;2.92;1.20;;;;;;;13.90;68.59;101182.63;5018146;28;20053;-80
2022/08/07 05:31:27;;;;;;;2.70;1.23;;;;;;;13.96;68.77;101190.34;5035341;28;20468;-80
2022/08/07 05:33:52;;;;;;;2.90;1.17;;;;;;;13.98;68.35;101190.00;5017634;28;20099;-80
2022/08/07 05:36:19;;;;;;;2.53;1.02;;;;;;;14.01;67.18;101192.88;5035185;28;20045;-79
2022/08/07 05:38:46;;;;;;;3.10;1.10;;;;;;;14.08;67.34;101181.38;5035381;28;20041;-79
2022/08/07 05:41:12;;;;;;;2.30;1.13;;;;;;;14.18;66.76;101191.94;5035390;28;20112;-78
2022/08/07 05:43:39;;;;;;;1.75;0.82;;;;;;;14.25;66.49;101188.66;5035110;28;20060;-80
2022/08/07 05:46:05;;;;;;;4.25;1.30;;;;;;;14.28;65.68;101193.50;5035461;28;20033;-79
2022/08/07 05:48:31;;;;;;;2.13;1.00;;;;;;;14.43;65.26;101195.63;5035169;28;20037;-79
2022/08/07 05:50:59;;;;;;;3.00;1.10;;;;;;;14.44;65.44;101194.53;5035361;28;20044;-80
2022/08/07 05:53:25;;;;;;;2.83;0.82;;;;;;;14.47;65.16;101193.88;5017408;28;20041;-79
2022/08/07 05:55:52;;;;;;;2.38;1.00;;;;;;;14.56;64.70;101197.31;5035240;28;20037;-78
2022/08/07 05:58:20;;;;;;;2.42;1.08;;;;;;;14.68;64.19;101205.63;5017210;28;20107;-78
2022/08/07 06:00:48;;;;;;;2.28;0.90;;;;;;;14.56;64.05;101202.00;5034739;28;20079;-78
2022/08/07 06:03:14;;;;;;;3.03;1.20;;;;;;;14.64;63.67;101201.94;5034671;28;20052;-78
2022/08/07 06:05:41;;;;;;;3.28;1.00;;;;;;;14.79;64.08;101205.22;5034567;28;20072;-78
2022/08/07 06:08:07;;;;;;;2.10;0.80;;;;;;;14.88;63.54;101208.66;5034541;28;20040;-78
2022/08/07 06:10:34;;;;;;;;;;;;;;;15.04;62.49;101209.63;5017282;28;20040;-79
2022/08/07 06:13:00;;;;;;;1.30;0.70;;;;;;;15.01;61.88;101210.31;5034731;28;19917;-77
2022/08/07 06:15:28;;;;;;;2.70;1.00;;;;;;;15.05;61.88;101203.81;5034385;28;20050;-78
2022/08/07 06:17:54;;;;;;;2.20;0.85;;;;;;;15.26;61.44;101198.25;5034431;28;20025;-78
2022/08/07 06:20:20;;;;;;;;;;;;;;;15.30;60.73;101201.16;5034758;28;20029;-77
2022/08/07 06:22:46;;;;;;;3.70;1.17;;;;;;;15.32;60.43;101210.63;5033906;28;20334;-78
2022/08/07 06:25:12;;;;;;;1.48;0.77;;;;;;;15.36;60.54;101197.03;5034123;28;20495;-79
2022/08/07 06:27:38;;;;;;;1.27;0.63;;;;;;;15.50;60.45;101213.19;5034553;28;20033;-79
2022/08/07 06:30:03;;;;;;;2.03;0.80;;;;;;;15.70;59.53;101209.56;5034417;28;20033;-78
2022/08/07 06:32:29;;;;;;;2.08;0.80;;;;;;;15.81;59.06;101213.47;5034448;28;20022;-79
2022/08/07 06:34:55;;;;;;;1.63;0.80;;;;;;;15.92;58.95;101209.09;5034298;28;20033;-79
2022/08/07 06:37:20;;;;;;;2.07;0.80;;;;;;;16.20;58.45;101206.44;5034473;28;20068;-79
2022/08/07 06:39:45;;;;;;;2.57;0.87;;;;;;;16.97;55.54;101209.09;5034336;28;20313;-78
2022/08/07 06:42:16;;;;;;;1.33;0.73;;;;;;;17.76;51.64;101194.59;5034588;28;20309;-79
2022/08/07 06:44:44;;;;;;;1.92;0.77;;;;;;;18.33;49.81;101191.19;5034261;28;20342;-79
2022/08/07 06:47:10;;;;;;;0.90;0.55;;;;;;;18.94;48.31;101194.03;5034151;28;20030;-78
2022/08/07 06:49:35;;;;;;;;;;;;;;;19.06;48.74;101190.31;5034700;28;20029;-77
2022/08/07 06:52:02;;;;;;;1.17;0.55;;;;;;;19.60;47.30;101186.53;5034022;28;19921;-79
2022/08/07 06:54:28;;;;;;;1.83;0.80;;;;;;;19.90;46.43;101183.84;5034126;28;20357;-78
2022/08/07 06:56:55;;;;;;;1.67;0.70;;;;;;;20.34;45.27;101180.53;5033804;28;20060;-78
2022/08/07 06:59:31;;;;;;;2.78;0.98;;;;;;;20.37;44.83;101188.06;5034030;28;20391;-78
2022/08/07 07:01:59;;;;;;;1.63;0.73;;;;;;;19.62;46.46;101186.16;5034306;28;20076;-78
2022/08/07 07:04:25;;;;;;;1.77;0.60;;;;;;;19.46;46.68;101181.53;5033621;28;20040;-78
2022/08/07 07:06:50;;;;;;;1.50;0.50;;;;;;;19.71;46.24;101186.72;5033692;28;20029;-78
2022/08/07 07:09:24;;;;;;;1.38;0.70;;;;;;;19.38;47.01;101192.84;5033535;28;20026;-78
2022/08/07 07:12:07;;;;;;;1.60;0.80;;;;;;;18.92;48.04;101190.84;5033623;28;20030;-78
2022/08/07 07:14:44;;;;;;;2.45;0.73;;;;;;;19.06;48.46;101186.75;5033402;28;20037;-79
2022/08/07 07:17:17;;;;;;;2.67;1.00;;;;;;;19.12;47.76;101185.28;5033561;28;20040;-78
2022/08/07 07:19:49;;;;;;;2.53;0.95;;;;;;;19.49;48.92;101186.34;5015767;28;20136;-79
2022/08/07 07:22:16;;;;;;;5.63;0.80;;;;;;;19.43;47.62;101187.81;5033261;28;20029;-79
2022/08/07 07:24:42;;;;;;;1.95;0.70;;;;;;;19.20;47.72;101184.25;5033348;28;20041;-79
2022/08/07 07:27:10;;;;;;;1.02;0.52;;;;;;;19.01;48.17;101189.84;5033332;28;20442;-79
2022/08/07 07:29:39;;;;;;;2.22;0.80;;;;;;;18.63;48.86;101183.97;5033477;28;20037;-79
2022/08/07 07:32:08;;;;;;;2.33;0.70;;;;;;;18.46;48.99;101184.38;5033205;28;20388;-80
2022/08/07 07:34:37;;;;;;;3.05;0.60;;;;;;;18.48;49.35;101175.75;5032682;28;20064;-80
2022/08/07 07:37:04;;;;;;;1.38;0.55;;;;;;;18.50;48.08;101182.50;5032777;28;20407;-79
2022/08/07 07:39:31;;;;;;;1.60;0.60;;;;;;;18.47;48.06;101182.41;5015253;28;20029;-81
2022/08/07 07:41:59;;;;;;;1.75;0.60;;;;;;;18.54;49.00;101179.81;5033270;28;20033;-81
2022/08/07 07:44:26;;;;;;;1.45;0.70;;;;;;;18.63;49.07;101177.66;5033363;28;20500;-80
2022/08/07 07:46:54;;;;;;;1.42;0.50;;;;;;;18.89;47.89;101174.22;5033184;28;20036;-81
2022/08/07 07:49:22;;;;;;;1.90;0.57;;;;;;;18.97;45.97;101175.16;5033179;28;20037;-79
2022/08/07 07:51:48;;;;;;;2.58;0.60;;;;;;;19.14;46.27;101174.66;5032942;28;20460;-81
2022/08/07 07:54:16;;;;;;;1.38;0.50;;;;;;;19.06;45.75;101173.75;5033114;28;20033;-79
2022/08/07 07:56:43;;;;;;;0.85;0.50;;;;;;;19.07;46.03;101169.81;5015331;28;20033;-79
2022/08/07 07:59:11;;;;;;;1.30;0.57;;;;;;;19.14;46.31;101169.16;5032746;28;20356;-80
2022/08/07 08:01:42;;;;;;;0.68;0.50;;;;;;;19.24;44.15;101169.34;5032904;28;20034;-79
2022/08/07 08:04:08;;;;;;;2.15;0.70;;;;;;;19.33;44.28;101171.09;5015057;28;20080;-78
2022/08/07 08:06:34;;;;;;;1.48;0.85;;;;;;;19.59;43.95;101160.09;5015032;28;20427;-79
2022/08/07 08:09:02;;;;;;;2.25;0.47;;;;;;;19.64;43.07;101162.53;5032848;28;20047;-81
2022/08/07 08:11:28;;;;;;;1.58;0.70;;;;;;;19.63;42.30;101151.84;5032543;28;20037;-82
2022/08/07 08:13:53;;;;;;;0.43;0.43;;;;;;;19.87;42.50;101156.19;5032565;28;20384;-80
2022/08/07 08:16:20;;;;;;;2.25;0.50;;;;;;;19.96;40.80;101160.25;5032894;28;20026;-79
2022/08/07 08:18:47;;;;;;;1.63;0.63;;;;;;;19.86;41.59;101160.91;5032329;28;20522;-79
2022/08/07 08:27:08;;;;;;;1.05;0.50;;;;;;;20.42;39.51;101160.91;5032499;28;20040;-79
2022/08/07 08:29:48;;;;;;;1.15;0.50;;;;;;;20.52;39.34;101153.13;5032444;28;20064;-79
2022/08/07 08:32:17;;;;;;;1.45;0.60;;;;;;;20.65;40.07;101158.00;5032432;28;20030;-80
2022/08/07 08:34:45;;;;;;;3.13;0.80;;;;;;;20.51;40.83;101157.88;5032416;28;20034;-78
2022/08/07 08:37:12;;;;;;;4.90;0.80;;;;;;;20.55;40.35;101150.41;5032376;28;20511;-78
2022/08/07 08:39:39;;;;;;;1.25;0.60;;;;;;;20.70;39.13;101146.63;5032467;28;20036;-78
2022/08/07 08:42:35;;;;;;;1.50;0.60;;;;;;;20.88;40.35;101146.81;5031691;28;20039;-78
2022/08/07 08:45:27;;;;;;;0.47;0.30;;;;;;;21.06;37.81;101144.22;5024216;28;20048;-76
2022/08/07 08:48:26;;;;;;;2.00;0.80;;;;;;;21.19;37.61;101139.19;5035975;28;20033;-79
2022/08/07 08:51:03;;;;;;;0.98;0.50;;;;;;;21.28;36.09;101146.03;5035763;28;20067;-77
2022/08/07 08:53:37;;;;;;;0.68;0.40;;;;;;;21.38;36.15;101139.00;5035916;28;20044;-76
2022/08/07 08:56:11;;;;;;;1.33;0.50;;;;;;;21.56;37.16;101139.13;5036234;28;20476;-79
2022/08/07 08:59:04;;;;;;;1.65;0.50;;;;;;;21.60;37.01;101140.72;5018059;28;20033;-77
2022/08/07 09:01:45;;;;;;;0.93;0.50;;;;;;;21.61;35.62;101133.22;5035900;28;20044;-77
2022/08/07 09:04:25;;;;;;;1.75;0.60;;;;;;;21.46;36.24;101134.28;5035595;28;20025;-78
2022/08/07 09:07:30;;;;;;;1.83;0.50;;;;;;;21.40;36.07;101136.63;5035598;28;20033;-77
2022/08/07 09:10:31;;;;;;;1.52;0.45;;;;;;;21.63;35.22;101131.66;5035481;28;20037;-77
2022/08/07 09:13:08;;;;;;;0.73;0.40;;;;;;;21.63;33.51;101139.16;5035663;28;20117;-77
2022/08/07 09:15:59;;;;;;;0.65;0.45;;;;;;;21.49;34.85;101128.75;5035411;28;20044;-79
2022/08/07 09:18:45;;;;;;;1.13;0.40;;;;;;;21.44;35.15;101137.44;5035293;28;20387;-77
2022/08/07 09:21:44;;;;;;;0.90;0.50;;;;;;;21.56;34.24;101133.59;5035600;28;20075;-77
2022/08/07 09:24:36;;;;;;;1.48;0.50;;;;;;;21.70;34.46;101124.56;5035328;28;20457;-77
2022/08/07 09:27:15;;;;;;;0.70;0.40;;;;;;;21.79;34.73;101130.56;5035269;28;20155;-77
2022/08/07 09:29:51;;;;;;;1.52;0.80;;;;;;;21.95;32.39;101135.81;5035576;28;20025;-77
2022/08/07 09:32:53;;;;;;;0.70;0.50;;;;;;;21.77;34.71;101128.19;5035335;28;20344;-76
2022/08/07 09:35:42;;;;;;;1.08;0.50;;;;;;;21.52;34.39;101125.25;5035107;28;20182;-77
2022/08/07 09:38:32;;;;;;;0.82;0.50;;;;;;;21.98;34.52;101121.16;5034972;28;20033;-80
2022/08/07 09:41:13;;;;;;;0.60;0.38;;;;;;;22.14;33.03;101116.13;5034966;28;20032;-76
2022/08/07 09:44:00;;;;;;;1.40;0.55;;;;;;;22.25;32.77;101119.75;5034925;28;20095;-78
2022/08/07 09:46:29;;;;;;;;;;;;;;;22.29;34.13;101120.56;5035168;28;20064;-77
2022/08/07 09:49:08;;;;;;;0.68;0.30;;;;;;;22.26;33.40;101113.00;5035114;28;19963;-78
2022/08/07 09:51:42;;;;;;;0.73;0.50;;;;;;;22.37;34.59;101113.84;5034826;28;20068;-79
2022/08/07 09:54:41;;;;;;;0.63;0.45;;;;;;;22.28;32.25;101107.88;5034712;28;20030;-79
2022/08/07 09:57:25;;;;;;;0.50;0.40;;;;;;;22.19;31.90;101116.56;5020769;28;20120;-77
2022/08/07 09:59:59;;;;;;;0.57;0.40;;;;;;;22.17;32.25;101113.38;5034609;28;20111;-80
2022/08/07 10:02:49;;;;;;;0.80;0.50;;;;;;;21.81;33.22;101106.81;5035084;28;20040;-79
2022/08/07 10:05:42;;;;;;;2.80;0.85;;;;;;;21.82;32.70;101116.72;5034359;28;20045;-79
2022/08/07 10:08:44;;;;;;;1.60;0.50;;;;;;;21.76;34.71;101107.19;5035150;28;20468;-78
2022/08/07 10:11:42;;;;;;;1.00;0.40;;;;;;;22.15;34.15;101092.75;5034378;28;20029;-80
2022/08/07 10:14:27;;;;;;;0.73;0.40;;;;;;;22.20;33.99;101095.16;5034728;28;20029;-79
2022/08/07 10:17:17;;;;;;;0.75;0.60;;;;;;;22.17;35.20;101091.19;5034637;28;20042;-79
2022/08/07 10:20:24;;;;;;;1.17;0.50;;;;;;;22.39;32.83;101097.63;5034259;28;20033;-78
2022/08/07 10:23:08;;;;;;;1.20;0.50;;;;;;;22.66;32.67;101088.94;4996748;28;20131;-79
2022/08/07 10:25:56;;;;;;;0.68;0.43;;;;;;;22.62;32.77;101090.94;5034314;28;20198;-79
2022/08/07 10:28:56;;;;;;;1.20;0.45;;;;;;;22.79;32.27;101092.94;5034379;28;20033;-79
2022/08/07 10:31:49;;;;;;;1.00;0.40;;;;;;;22.57;31.94;101081.00;5033600;28;20072;-80
2022/08/07 10:34:32;;;;;;;1.45;0.50;;;;;;;22.62;32.44;101082.59;5034192;28;20033;-79
2022/08/07 10:37:04;;;;;;;0.85;0.50;;;;;;;22.66;32.86;101089.72;5033761;28;20052;-79
2022/08/07 10:39:50;;;;;;;0.50;0.40;;;;;;;22.44;33.64;101071.44;5034241;28;20044;-80
2022/08/07 10:42:37;;;;;;;1.48;0.50;;;;;;;22.33;33.23;101068.63;5033913;28;20113;-79
2022/08/07 10:45:46;;;;;;;1.10;0.65;;;;;;;22.31;34.10;101070.22;5034457;28;20068;-79
2022/08/07 10:48:34;;;;;;;1.73;0.55;;;;;;;22.29;33.88;101067.84;4953602;29;20039;-80
2022/08/07 10:51:17;;;;;;;1.38;0.60;;;;;;;22.30;34.19;101065.84;4953438;29;20036;-78
2022/08/07 10:53:47;;;;;;;0.77;0.50;;;;;;;22.50;33.96;101064.31;5015562;28;20118;-79
2022/08/07 10:56:34;;;;;;;0.93;0.40;;;;;;;23.00;33.46;101062.44;5016173;28;20088;-80
2022/08/07 10:59:19;;;;;;;1.08;0.50;;;;;;;22.93;33.21;101059.66;5033834;28;20037;-80
2022/08/07 11:01:57;;;;;;;1.00;0.47;;;;;;;23.49;32.24;101055.25;5033783;28;20037;-80
2022/08/07 11:04:28;;;;;;;1.35;0.60;;;;;;;23.40;32.18;101049.31;5033704;28;20466;-79
2022/08/07 11:07:05;;;;;;;0.85;0.40;;;;;;;23.16;32.57;101044.56;5033662;28;20037;-80
2022/08/07 11:09:42;;;;;;;1.98;0.50;;;;;;;23.73;31.38;101038.94;5033449;28;20030;-81
2022/08/07 11:12:55;;;;;;;1.63;0.60;;;;;;;23.51;30.87;101043.72;5033477;28;20498;-79
2022/08/07 11:15:29;;;;;;;1.17;0.40;;;;;;;23.01;31.73;101041.81;4952943;29;20027;-80
2022/08/07 11:18:28;;;;;;;1.02;0.52;;;;;;;23.21;31.37;101035.88;5027371;28;20111;-80
2022/08/07 11:21:13;;;;;;;2.50;0.52;;;;;;;23.51;31.00;101032.59;4965246;28;20055;-80
2022/08/07 11:24:05;;;;;;;0.52;0.40;;;;;;;23.47;32.47;101029.84;5033172;28;20041;-79
2022/08/07 11:26:32;;;;;;;2.53;0.90;;;;;;;23.88;31.88;101021.81;4992279;28;20373;-80
2022/08/07 11:29:05;;;;;;;1.52;0.60;;;;;;;23.58;30.66;101027.06;5033275;28;20029;-81
2022/08/07 11:31:38;;;;;;;4.57;0.80;;;;;;;23.56;31.53;101021.91;5033327;28;20030;-80
2022/08/07 11:34:14;;;;;;;0.93;0.40;;;;;;;23.74;31.45;101021.88;5033033;28;20033;-81
2022/08/07 11:36:58;;;;;;;1.17;0.57;;;;;;;23.56;30.66;101024.69;5033400;28;20479;-80
2022/08/07 11:39:42;;;;;;;1.40;0.75;;;;;;;23.62;30.90;101017.53;5033577;28;20048;-80
2022/08/07 11:42:41;;;;;;;3.10;1.02;;;;;;;23.83;31.59;101013.88;5032637;28;20029;-81
2022/08/07 11:45:44;;;;;;;0.82;0.50;;;;;;;24.36;31.20;101012.06;5032905;28;20029;-80
2022/08/07 11:48:30;;;;;;;1.33;0.50;;;;;;;24.42;30.45;101008.44;5033153;28;20069;-80
2022/08/07 11:51:14;;;;;;;;;;;;;;;24.14;30.14;101006.56;5032955;28;20056;-78
2022/08/07 11:54:04;;;;;;;2.20;0.60;;;;;;;23.53;30.97;101008.81;5032626;28;20387;-79
2022/08/07 11:57:00;;;;;;;0.73;0.40;;;;;;;23.96;31.29;101011.44;5032631;28;20030;-81
2022/08/07 11:59:28;;;;;;;2.03;0.50;;;;;;;24.46;29.28;101002.84;5032279;28;20041;-78